sensor_id;sensor_type;location;lat;lon;timestamp;temperature;humidity
24800;DHT22;12897;50.812;4.430;2022-09-12T00:01:13;15.40;99.90
24800;DHT22;12897;50.812;4.430;2022-09-12T00:03:41;15.40;99.90
24800;DHT22;12897;50.812;4.430;2022-09-12T00:06:18;15.50;99.90
24800;DHT22;12897;50.812;4.430;2022-09-12T00:08:45;15.50;99.90
24800;DHT22;12897;50.812;4.430;2022-09-12T00:11:13;15.60;99.90
24800;DHT22;12897;50.812;4.430;2022-09-12T00:13:41;15.50;99.90
24800;DHT22;12897;50.812;4.430;2022-09-12T00:16:23;15.50;99.90
24800;DHT22;12897;50.812;4.430;2022-09-12T00:18:51;15.50;99.90
24800;DHT22;12897;50.812;4.430;2022-09-12T00:21:25;15.50;99.90
24800;DHT22;12897;50.812;4.430;2022-09-12T00:24:00;15.50;99.90
24800;DHT22;12897;50.812;4.430;2022-09-12T00:26:27;15.50;99.90
24800;DHT22;12897;50.812;4.430;2022-09-12T00:28:55;15.50;99.90
24800;DHT22;12897;50.812;4.430;2022-09-12T00:31:24;15.40;99.90
24800;DHT22;12897;50.812;4.430;2022-09-12T00:33:55;15.30;99.90
24800;DHT22;12897;50.812;4.430;2022-09-12T00:36:24;15.30;99.90
24800;DHT22;12897;50.812;4.430;2022-09-12T00:38:52;15.30;99.90
24800;DHT22;12897;50.812;4.430;2022-09-12T00:41:31;15.30;99.90
24800;DHT22;12897;50.812;4.430;2022-09-12T00:44:01;15.20;99.90
24800;DHT22;12897;50.812;4.430;2022-09-12T00:46:36;15.10;99.90
24800;DHT22;12897;50.812;4.430;2022-09-12T00:49:07;15.10;99.90
24800;DHT22;12897;50.812;4.430;2022-09-12T00:51:35;15.20;99.90
24800;DHT22;12897;50.812;4.430;2022-09-12T00:54:09;15.20;99.90
24800;DHT22;12897;50.812;4.430;2022-09-12T00:56:38;15.10;99.90
24800;DHT22;12897;50.812;4.430;2022-09-12T00:59:13;15.10;99.90
24800;DHT22;12897;50.812;4.430;2022-09-12T01:01:43;15.10;99.90
24800;DHT22;12897;50.812;4.430;2022-09-12T01:04:10;15.10;99.90
24800;DHT22;12897;50.812;4.430;2022-09-12T01:06:40;15.20;99.90
24800;DHT22;12897;50.812;4.430;2022-09-12T01:09:11;15.10;99.90
24800;DHT22;12897;50.812;4.430;2022-09-12T01:11:39;15.00;99.90
24800;DHT22;12897;50.812;4.430;2022-09-12T01:14:07;15.00;99.90
24800;DHT22;12897;50.812;4.430;2022-09-12T01:16:36;15.00;99.90
24800;DHT22;12897;50.812;4.430;2022-09-12T01:33:20;14.80;99.90
24800;DHT22;12897;50.812;4.430;2022-09-12T01:38:47;15.00;99.90
24800;DHT22;12897;50.812;4.430;2022-09-12T01:41:32;15.00;99.90
24800;DHT22;12897;50.812;4.430;2022-09-12T01:47:18;14.90;99.90
24800;DHT22;12897;50.812;4.430;2022-09-12T01:54:56;14.80;99.90
24800;DHT22;12897;50.812;4.430;2022-09-12T01:57:34;14.80;99.90
24800;DHT22;12897;50.812;4.430;2022-09-12T01:59:59;14.70;99.90
24800;DHT22;12897;50.812;4.430;2022-09-12T02:05:12;14.70;99.90
24800;DHT22;12897;50.812;4.430;2022-09-12T02:07:52;14.70;99.90
24800;DHT22;12897;50.812;4.430;2022-09-12T02:10:24;14.70;99.90
24800;DHT22;12897;50.812;4.430;2022-09-12T02:12:55;14.80;99.90
24800;DHT22;12897;50.812;4.430;2022-09-12T02:15:28;14.80;99.90
24800;DHT22;12897;50.812;4.430;2022-09-12T02:17:55;14.90;99.90
24800;DHT22;12897;50.812;4.430;2022-09-12T02:20:27;14.80;99.90
24800;DHT22;12897;50.812;4.430;2022-09-12T02:22:56;14.80;99.90
24800;DHT22;12897;50.812;4.430;2022-09-12T02:25:25;14.70;99.90
24800;DHT22;12897;50.812;4.430;2022-09-12T02:28:10;14.90;99.90
24800;DHT22;12897;50.812;4.430;2022-09-12T02:30:49;15.00;99.90
24800;DHT22;12897;50.812;4.430;2022-09-12T02:35:52;14.80;99.90
24800;DHT22;12897;50.812;4.430;2022-09-12T02:38:39;14.80;99.90
24800;DHT22;12897;50.812;4.430;2022-09-12T02:41:06;14.80;99.90
24800;DHT22;12897;50.812;4.430;2022-09-12T02:43:33;14.70;99.90
24800;DHT22;12897;50.812;4.430;2022-09-12T02:46:05;14.70;99.90
24800;DHT22;12897;50.812;4.430;2022-09-12T02:48:36;14.70;99.90
24800;DHT22;12897;50.812;4.430;2022-09-12T02:51:05;14.80;99.90
24800;DHT22;12897;50.812;4.430;2022-09-12T02:53:33;14.80;99.90
24800;DHT22;12897;50.812;4.430;2022-09-12T02:56:00;14.70;99.90
24800;DHT22;12897;50.812;4.430;2022-09-12T02:58:30;14.70;99.90
24800;DHT22;12897;50.812;4.430;2022-09-12T03:12:40;14.80;99.90
24800;DHT22;12897;50.812;4.430;2022-09-12T03:15:11;14.70;99.90
24800;DHT22;12897;50.812;4.430;2022-09-12T03:17:41;14.70;99.90
24800;DHT22;12897;50.812;4.430;2022-09-12T03:22:57;14.60;99.90
24800;DHT22;12897;50.812;4.430;2022-09-12T03:25:43;14.60;99.90
24800;DHT22;12897;50.812;4.430;2022-09-12T03:28:16;14.50;99.90
24800;DHT22;12897;50.812;4.430;2022-09-12T03:30:43;14.60;99.90
24800;DHT22;12897;50.812;4.430;2022-09-12T03:33:17;14.50;99.90
24800;DHT22;12897;50.812;4.430;2022-09-12T03:35:52;14.60;99.90
24800;DHT22;12897;50.812;4.430;2022-09-12T03:38:25;14.40;99.90
24800;DHT22;12897;50.812;4.430;2022-09-12T03:41:06;14.50;99.90
24800;DHT22;12897;50.812;4.430;2022-09-12T03:43:37;14.40;99.90
24800;DHT22;12897;50.812;4.430;2022-09-12T03:46:04;14.40;99.90
24800;DHT22;12897;50.812;4.430;2022-09-12T03:48:41;14.40;99.90
24800;DHT22;12897;50.812;4.430;2022-09-12T03:51:10;14.40;99.90
24800;DHT22;12897;50.812;4.430;2022-09-12T03:53:37;14.30;99.90
24800;DHT22;12897;50.812;4.430;2022-09-12T03:56:06;14.40;99.90
24800;DHT22;12897;50.812;4.430;2022-09-12T03:58:35;14.40;99.90
24800;DHT22;12897;50.812;4.430;2022-09-12T04:01:09;14.50;99.90
24800;DHT22;12897;50.812;4.430;2022-09-12T04:03:40;14.60;99.90
24800;DHT22;12897;50.812;4.430;2022-09-12T04:06:08;14.60;99.90
24800;DHT22;12897;50.812;4.430;2022-09-12T04:08:36;14.70;99.90
24800;DHT22;12897;50.812;4.430;2022-09-12T04:11:06;14.60;99.90
24800;DHT22;12897;50.812;4.430;2022-09-12T04:13:35;14.50;99.90
24800;DHT22;12897;50.812;4.430;2022-09-12T04:16:05;14.50;99.90
24800;DHT22;12897;50.812;4.430;2022-09-12T04:18:33;14.50;99.90
24800;DHT22;12897;50.812;4.430;2022-09-12T04:21:12;14.50;99.90
24800;DHT22;12897;50.812;4.430;2022-09-12T04:23:42;14.40;99.90
24800;DHT22;12897;50.812;4.430;2022-09-12T04:26:10;14.30;99.90
24800;DHT22;12897;50.812;4.430;2022-09-12T04:28:41;14.30;99.90
24800;DHT22;12897;50.812;4.430;2022-09-12T04:31:10;14.20;99.90
24800;DHT22;12897;50.812;4.430;2022-09-12T04:33:39;14.30;99.90
24800;DHT22;12897;50.812;4.430;2022-09-12T04:36:08;14.40;99.90
24800;DHT22;12897;50.812;4.430;2022-09-12T04:38:38;14.40;99.90
24800;DHT22;12897;50.812;4.430;2022-09-12T04:41:17;14.30;99.90
24800;DHT22;12897;50.812;4.430;2022-09-12T04:43:46;14.40;99.90
24800;DHT22;12897;50.812;4.430;2022-09-12T04:46:15;14.40;99.90
24800;DHT22;12897;50.812;4.430;2022-09-12T04:48:45;14.40;99.90
24800;DHT22;12897;50.812;4.430;2022-09-12T04:51:23;14.40;99.90
24800;DHT22;12897;50.812;4.430;2022-09-12T04:53:54;14.50;99.90
24800;DHT22;12897;50.812;4.430;2022-09-12T04:56:25;14.60;99.90
24800;DHT22;12897;50.812;4.430;2022-09-12T04:58:52;14.60;99.90
24800;DHT22;12897;50.812;4.430;2022-09-12T05:01:21;14.60;99.90
24800;DHT22;12897;50.812;4.430;2022-09-12T05:03:50;14.50;99.90
24800;DHT22;12897;50.812;4.430;2022-09-12T05:06:21;14.40;99.90
24800;DHT22;12897;50.812;4.430;2022-09-12T05:08:51;14.30;99.90
24800;DHT22;12897;50.812;4.430;2022-09-12T05:11:21;14.20;99.90
24800;DHT22;12897;50.812;4.430;2022-09-12T05:13:50;14.10;99.90
24800;DHT22;12897;50.812;4.430;2022-09-12T05:16:19;14.20;99.90
24800;DHT22;12897;50.812;4.430;2022-09-12T05:18:47;14.40;99.90
24800;DHT22;12897;50.812;4.430;2022-09-12T05:21:18;14.40;99.90
24800;DHT22;12897;50.812;4.430;2022-09-12T05:23:46;14.40;99.90
24800;DHT22;12897;50.812;4.430;2022-09-12T05:26:16;14.40;99.90
24800;DHT22;12897;50.812;4.430;2022-09-12T05:28:46;14.50;99.90
24800;DHT22;12897;50.812;4.430;2022-09-12T05:31:26;14.50;99.90
24800;DHT22;12897;50.812;4.430;2022-09-12T05:33:55;14.50;99.90
24800;DHT22;12897;50.812;4.430;2022-09-12T05:36:28;14.50;99.90
24800;DHT22;12897;50.812;4.430;2022-09-12T05:38:58;14.50;99.90
24800;DHT22;12897;50.812;4.430;2022-09-12T05:41:29;14.40;99.90
24800;DHT22;12897;50.812;4.430;2022-09-12T05:44:00;14.20;99.90
24800;DHT22;12897;50.812;4.430;2022-09-12T05:46:30;14.20;99.90
24800;DHT22;12897;50.812;4.430;2022-09-12T05:49:03;14.20;99.90
24800;DHT22;12897;50.812;4.430;2022-09-12T05:51:36;14.30;99.90
24800;DHT22;12897;50.812;4.430;2022-09-12T05:54:05;14.30;99.90
24800;DHT22;12897;50.812;4.430;2022-09-12T05:56:40;14.20;99.90
24800;DHT22;12897;50.812;4.430;2022-09-12T05:59:20;14.20;99.90
24800;DHT22;12897;50.812;4.430;2022-09-12T06:01:47;14.30;99.90
24800;DHT22;12897;50.812;4.430;2022-09-12T06:04:15;14.50;99.90
24800;DHT22;12897;50.812;4.430;2022-09-12T06:06:44;14.50;99.90
24800;DHT22;12897;50.812;4.430;2022-09-12T06:09:14;14.60;99.90
24800;DHT22;12897;50.812;4.430;2022-09-12T06:11:42;14.50;99.90
24800;DHT22;12897;50.812;4.430;2022-09-12T06:14:12;14.50;99.90
24800;DHT22;12897;50.812;4.430;2022-09-12T06:16:41;14.60;99.90
24800;DHT22;12897;50.812;4.430;2022-09-12T06:19:19;14.70;99.90
24800;DHT22;12897;50.812;4.430;2022-09-12T06:21:48;14.70;99.90
24800;DHT22;12897;50.812;4.430;2022-09-12T06:24:18;15.00;99.90
24800;DHT22;12897;50.812;4.430;2022-09-12T06:26:48;15.20;99.90
24800;DHT22;12897;50.812;4.430;2022-09-12T06:29:18;15.30;99.90
24800;DHT22;12897;50.812;4.430;2022-09-12T06:31:47;15.50;99.90
24800;DHT22;12897;50.812;4.430;2022-09-12T06:34:15;15.50;99.90
24800;DHT22;12897;50.812;4.430;2022-09-12T06:36:46;15.60;99.90
24800;DHT22;12897;50.812;4.430;2022-09-12T06:39:18;15.60;99.90
24800;DHT22;12897;50.812;4.430;2022-09-12T06:41:48;15.90;99.90
24800;DHT22;12897;50.812;4.430;2022-09-12T06:44:21;16.00;99.90
24800;DHT22;12897;50.812;4.430;2022-09-12T06:46:50;16.00;99.90
24800;DHT22;12897;50.812;4.430;2022-09-12T06:49:22;16.20;99.90
24800;DHT22;12897;50.812;4.430;2022-09-12T06:51:49;16.40;99.90
24800;DHT22;12897;50.812;4.430;2022-09-12T06:54:17;16.60;99.90
24800;DHT22;12897;50.812;4.430;2022-09-12T06:56:46;16.90;99.90
24800;DHT22;12897;50.812;4.430;2022-09-12T06:59:14;17.10;99.90
24800;DHT22;12897;50.812;4.430;2022-09-12T07:01:43;17.20;99.90
24800;DHT22;12897;50.812;4.430;2022-09-12T07:04:11;17.30;99.90
24800;DHT22;12897;50.812;4.430;2022-09-12T07:06:40;17.40;99.90
24800;DHT22;12897;50.812;4.430;2022-09-12T07:09:12;17.50;99.90
24800;DHT22;12897;50.812;4.430;2022-09-12T07:11:43;17.60;99.90
24800;DHT22;12897;50.812;4.430;2022-09-12T07:14:12;17.70;99.90
24800;DHT22;12897;50.812;4.430;2022-09-12T07:16:41;17.70;99.90
24800;DHT22;12897;50.812;4.430;2022-09-12T07:19:09;17.70;99.90
24800;DHT22;12897;50.812;4.430;2022-09-12T07:21:39;17.90;99.90
24800;DHT22;12897;50.812;4.430;2022-09-12T07:24:08;17.80;99.90
24800;DHT22;12897;50.812;4.430;2022-09-12T07:26:36;17.80;99.90
24800;DHT22;12897;50.812;4.430;2022-09-12T07:29:04;18.00;99.90
24800;DHT22;12897;50.812;4.430;2022-09-12T07:31:31;18.30;99.90
24800;DHT22;12897;50.812;4.430;2022-09-12T07:33:59;18.30;99.90
24800;DHT22;12897;50.812;4.430;2022-09-12T07:36:27;18.30;99.90
24800;DHT22;12897;50.812;4.430;2022-09-12T07:38:56;18.40;99.90
24800;DHT22;12897;50.812;4.430;2022-09-12T07:41:27;18.50;99.90
24800;DHT22;12897;50.812;4.430;2022-09-12T07:43:57;18.60;99.90
24800;DHT22;12897;50.812;4.430;2022-09-12T07:46:28;18.80;99.90
24800;DHT22;12897;50.812;4.430;2022-09-12T07:48:57;18.90;99.90
24800;DHT22;12897;50.812;4.430;2022-09-12T07:51:29;19.20;99.90
24800;DHT22;12897;50.812;4.430;2022-09-12T07:53:57;19.30;99.90
24800;DHT22;12897;50.812;4.430;2022-09-12T07:56:26;19.30;99.90
24800;DHT22;12897;50.812;4.430;2022-09-12T07:58:54;19.40;99.90
24800;DHT22;12897;50.812;4.430;2022-09-12T08:01:22;19.40;99.90
24800;DHT22;12897;50.812;4.430;2022-09-12T08:03:57;19.50;99.90
24800;DHT22;12897;50.812;4.430;2022-09-12T08:06:26;19.60;99.90
24800;DHT22;12897;50.812;4.430;2022-09-12T08:08:55;19.90;99.90
24800;DHT22;12897;50.812;4.430;2022-09-12T08:11:24;19.90;99.90
24800;DHT22;12897;50.812;4.430;2022-09-12T08:13:54;19.80;99.90
24800;DHT22;12897;50.812;4.430;2022-09-12T08:16:24;20.10;99.90
24800;DHT22;12897;50.812;4.430;2022-09-12T08:18:53;19.80;99.90
24800;DHT22;12897;50.812;4.430;2022-09-12T08:21:28;19.60;99.90
24800;DHT22;12897;50.812;4.430;2022-09-12T08:23:59;19.60;99.90
24800;DHT22;12897;50.812;4.430;2022-09-12T08:26:27;19.50;99.90
24800;DHT22;12897;50.812;4.430;2022-09-12T08:28:58;19.70;99.90
24800;DHT22;12897;50.812;4.430;2022-09-12T08:31:26;19.60;99.90
24800;DHT22;12897;50.812;4.430;2022-09-12T08:33:55;19.50;99.90
24800;DHT22;12897;50.812;4.430;2022-09-12T08:36:26;19.40;99.90
24800;DHT22;12897;50.812;4.430;2022-09-12T08:38:57;19.70;99.90
24800;DHT22;12897;50.812;4.430;2022-09-12T08:41:39;19.80;99.90
24800;DHT22;12897;50.812;4.430;2022-09-12T08:54:52;20.30;99.90
24800;DHT22;12897;50.812;4.430;2022-09-12T08:57:22;20.40;99.90
24800;DHT22;12897;50.812;4.430;2022-09-12T08:59:51;20.30;99.90
24800;DHT22;12897;50.812;4.430;2022-09-12T09:05:20;20.40;99.90
24800;DHT22;12897;50.812;4.430;2022-09-12T09:08:11;20.40;99.90
24800;DHT22;12897;50.812;4.430;2022-09-12T09:10:46;20.40;99.90
24800;DHT22;12897;50.812;4.430;2022-09-12T09:13:43;20.30;99.90
24800;DHT22;12897;50.812;4.430;2022-09-12T09:16:30;20.50;99.90
24800;DHT22;12897;50.812;4.430;2022-09-12T09:19:17;20.70;99.90
24800;DHT22;12897;50.812;4.430;2022-09-12T09:21:50;20.80;99.90
24800;DHT22;12897;50.812;4.430;2022-09-12T09:24:25;20.80;99.90
24800;DHT22;12897;50.812;4.430;2022-09-12T09:26:52;20.80;99.90
24800;DHT22;12897;50.812;4.430;2022-09-12T09:29:32;20.90;99.90
24800;DHT22;12897;50.812;4.430;2022-09-12T09:31:56;20.80;99.90
24800;DHT22;12897;50.812;4.430;2022-09-12T09:34:28;20.90;99.90
24800;DHT22;12897;50.812;4.430;2022-09-12T09:37:03;20.80;99.90
24800;DHT22;12897;50.812;4.430;2022-09-12T09:40:00;21.00;99.90
24800;DHT22;12897;50.812;4.430;2022-09-12T09:42:43;20.90;99.90
24800;DHT22;12897;50.812;4.430;2022-09-12T09:45:14;21.00;99.90
24800;DHT22;12897;50.812;4.430;2022-09-12T09:47:56;21.00;99.90
24800;DHT22;12897;50.812;4.430;2022-09-12T09:50:22;20.80;99.90
24800;DHT22;12897;50.812;4.430;2022-09-12T09:52:50;20.70;99.90
24800;DHT22;12897;50.812;4.430;2022-09-12T09:55:22;20.80;99.90
24800;DHT22;12897;50.812;4.430;2022-09-12T09:57:52;21.10;99.90
24800;DHT22;12897;50.812;4.430;2022-09-12T10:05:49;21.90;99.90
24800;DHT22;12897;50.812;4.430;2022-09-12T10:08:25;21.70;99.90
24800;DHT22;12897;50.812;4.430;2022-09-12T10:11:17;21.50;99.90
24800;DHT22;12897;50.812;4.430;2022-09-12T10:13:41;21.20;99.90
24800;DHT22;12897;50.812;4.430;2022-09-12T10:18:50;21.10;99.90
24800;DHT22;12897;50.812;4.430;2022-09-12T10:21:28;21.40;99.90
24800;DHT22;12897;50.812;4.430;2022-09-12T10:23:59;21.50;99.90
24800;DHT22;12897;50.812;4.430;2022-09-12T10:26:32;21.50;99.90
24800;DHT22;12897;50.812;4.430;2022-09-12T10:29:09;21.90;99.90
24800;DHT22;12897;50.812;4.430;2022-09-12T10:31:46;22.40;99.90
24800;DHT22;12897;50.812;4.430;2022-09-12T10:34:05;22.40;99.90
24800;DHT22;12897;50.812;4.430;2022-09-12T10:36:37;22.30;99.90
24800;DHT22;12897;50.812;4.430;2022-09-12T10:39:11;22.20;99.90
24800;DHT22;12897;50.812;4.430;2022-09-12T10:41:40;22.10;99.90
24800;DHT22;12897;50.812;4.430;2022-09-12T10:44:14;22.30;99.90
24800;DHT22;12897;50.812;4.430;2022-09-12T10:46:42;22.30;99.90
24800;DHT22;12897;50.812;4.430;2022-09-12T10:49:27;22.20;99.90
24800;DHT22;12897;50.812;4.430;2022-09-12T10:51:52;22.20;99.90
24800;DHT22;12897;50.812;4.430;2022-09-12T10:54:23;22.20;99.90
24800;DHT22;12897;50.812;4.430;2022-09-12T10:57:00;22.40;99.90
24800;DHT22;12897;50.812;4.430;2022-09-12T11:02:27;22.40;99.90
24800;DHT22;12897;50.812;4.430;2022-09-12T11:07:42;22.40;99.90
24800;DHT22;12897;50.812;4.430;2022-09-12T11:19:19;22.90;99.90
24800;DHT22;12897;50.812;4.430;2022-09-12T11:22:00;22.70;99.90
24800;DHT22;12897;50.812;4.430;2022-09-12T11:24:33;22.70;99.90
24800;DHT22;12897;50.812;4.430;2022-09-12T11:29:53;23.10;99.90
24800;DHT22;12897;50.812;4.430;2022-09-12T11:32:54;23.30;99.90
24800;DHT22;12897;50.812;4.430;2022-09-12T11:35:27;23.20;99.90
24800;DHT22;12897;50.812;4.430;2022-09-12T11:40:52;22.90;99.90
24800;DHT22;12897;50.812;4.430;2022-09-12T11:43:32;23.10;99.90
24800;DHT22;12897;50.812;4.430;2022-09-12T11:46:10;23.20;99.90
24800;DHT22;12897;50.812;4.430;2022-09-12T11:48:51;23.20;99.90
24800;DHT22;12897;50.812;4.430;2022-09-12T11:51:26;23.40;99.90
24800;DHT22;12897;50.812;4.430;2022-09-12T11:54:08;23.60;99.90
24800;DHT22;12897;50.812;4.430;2022-09-12T11:56:34;23.70;99.90
24800;DHT22;12897;50.812;4.430;2022-09-12T11:59:19;23.60;99.90
24800;DHT22;12897;50.812;4.430;2022-09-12T12:01:42;23.50;99.90
24800;DHT22;12897;50.812;4.430;2022-09-12T12:04:12;23.60;99.90
24800;DHT22;12897;50.812;4.430;2022-09-12T12:07:09;23.90;99.90
24800;DHT22;12897;50.812;4.430;2022-09-12T12:09:42;23.90;99.90
24800;DHT22;12897;50.812;4.430;2022-09-12T12:12:10;23.80;99.90
24800;DHT22;12897;50.812;4.430;2022-09-12T12:14:42;23.70;99.90
24800;DHT22;12897;50.812;4.430;2022-09-12T12:17:21;23.80;99.90
24800;DHT22;12897;50.812;4.430;2022-09-12T12:19:46;23.70;99.90
24800;DHT22;12897;50.812;4.430;2022-09-12T12:22:23;23.60;99.90
24800;DHT22;12897;50.812;4.430;2022-09-12T12:27:56;24.20;99.90
24800;DHT22;12897;50.812;4.430;2022-09-12T12:35:42;24.30;99.90
24800;DHT22;12897;50.812;4.430;2022-09-12T12:38:41;24.50;99.90
24800;DHT22;12897;50.812;4.430;2022-09-12T12:43:50;24.30;99.90
24800;DHT22;12897;50.812;4.430;2022-09-12T12:46:26;24.30;99.90
24800;DHT22;12897;50.812;4.430;2022-09-12T12:49:20;24.50;99.90
24800;DHT22;12897;50.812;4.430;2022-09-12T12:52:00;24.70;99.90
24800;DHT22;12897;50.812;4.430;2022-09-12T12:57:21;24.10;99.90
24800;DHT22;12897;50.812;4.430;2022-09-12T12:59:59;24.40;99.90
24800;DHT22;12897;50.812;4.430;2022-09-12T13:02:38;24.60;99.90
24800;DHT22;12897;50.812;4.430;2022-09-12T13:05:18;24.70;99.90
24800;DHT22;12897;50.812;4.430;2022-09-12T13:07:43;24.40;99.90
24800;DHT22;12897;50.812;4.430;2022-09-12T13:10:19;24.40;99.90
24800;DHT22;12897;50.812;4.430;2022-09-12T13:12:46;24.70;99.90
24800;DHT22;12897;50.812;4.430;2022-09-12T13:18:11;25.10;99.90
24800;DHT22;12897;50.812;4.430;2022-09-12T13:20:44;24.90;99.90
24800;DHT22;12897;50.812;4.430;2022-09-12T13:23:19;24.70;99.90
24800;DHT22;12897;50.812;4.430;2022-09-12T13:25:44;24.90;99.90
24800;DHT22;12897;50.812;4.430;2022-09-12T13:28:16;25.10;99.90
24800;DHT22;12897;50.812;4.430;2022-09-12T13:30:53;25.20;99.90
24800;DHT22;12897;50.812;4.430;2022-09-12T13:33:36;25.30;99.90
24800;DHT22;12897;50.812;4.430;2022-09-12T13:36:19;25.20;99.90
24800;DHT22;12897;50.812;4.430;2022-09-12T13:39:13;25.20;99.90
24800;DHT22;12897;50.812;4.430;2022-09-12T13:42:06;24.90;99.90
24800;DHT22;12897;50.812;4.430;2022-09-12T13:44:38;24.80;99.90
24800;DHT22;12897;50.812;4.430;2022-09-12T13:47:03;25.20;99.90
24800;DHT22;12897;50.812;4.430;2022-09-12T13:49:36;25.40;99.90
24800;DHT22;12897;50.812;4.430;2022-09-12T13:52:16;25.40;99.90
24800;DHT22;12897;50.812;4.430;2022-09-12T13:54:49;25.40;99.90
24800;DHT22;12897;50.812;4.430;2022-09-12T13:57:37;25.30;99.90
24800;DHT22;12897;50.812;4.430;2022-09-12T14:00:16;25.30;99.90
24800;DHT22;12897;50.812;4.430;2022-09-12T14:02:47;25.30;99.90
24800;DHT22;12897;50.812;4.430;2022-09-12T14:05:23;25.40;99.90
24800;DHT22;12897;50.812;4.430;2022-09-12T14:07:54;25.50;99.90
24800;DHT22;12897;50.812;4.430;2022-09-12T14:10:36;25.60;99.90
24800;DHT22;12897;50.812;4.430;2022-09-12T14:13:12;25.40;99.90
24800;DHT22;12897;50.812;4.430;2022-09-12T14:15:44;25.30;99.90
24800;DHT22;12897;50.812;4.430;2022-09-12T14:18:27;25.40;99.90
24800;DHT22;12897;50.812;4.430;2022-09-12T14:21:00;25.50;99.90
24800;DHT22;12897;50.812;4.430;2022-09-12T14:23:29;25.50;99.90
24800;DHT22;12897;50.812;4.430;2022-09-12T14:26:03;25.40;99.90
24800;DHT22;12897;50.812;4.430;2022-09-12T14:28:34;25.40;99.90
24800;DHT22;12897;50.812;4.430;2022-09-12T14:34:10;26.10;97.70
24800;DHT22;12897;50.812;4.430;2022-09-12T14:39:22;25.80;99.90
24800;DHT22;12897;50.812;4.430;2022-09-12T14:41:50;25.40;99.90
24800;DHT22;12897;50.812;4.430;2022-09-12T14:44:24;25.60;99.90
24800;DHT22;12897;50.812;4.430;2022-09-12T14:47:19;25.90;98.30
24800;DHT22;12897;50.812;4.430;2022-09-12T14:49:43;25.90;98.00
24800;DHT22;12897;50.812;4.430;2022-09-12T14:52:26;26.10;97.40
24800;DHT22;12897;50.812;4.430;2022-09-12T14:55:17;26.00;98.00
24800;DHT22;12897;50.812;4.430;2022-09-12T14:57:34;26.00;98.60
24800;DHT22;12897;50.812;4.430;2022-09-12T15:00:19;25.60;99.50
24800;DHT22;12897;50.812;4.430;2022-09-12T15:02:46;25.40;98.80
24800;DHT22;12897;50.812;4.430;2022-09-12T15:05:22;25.40;99.10
24800;DHT22;12897;50.812;4.430;2022-09-12T15:08:00;25.70;98.60
24800;DHT22;12897;50.812;4.430;2022-09-12T15:10:36;25.90;97.20
24800;DHT22;12897;50.812;4.430;2022-09-12T15:13:13;25.90;97.40
24800;DHT22;12897;50.812;4.430;2022-09-12T15:15:51;25.90;96.80
24800;DHT22;12897;50.812;4.430;2022-09-12T15:18:19;26.00;98.20
24800;DHT22;12897;50.812;4.430;2022-09-12T15:20:50;26.10;98.00
24800;DHT22;12897;50.812;4.430;2022-09-12T15:23:44;25.90;96.60
24800;DHT22;12897;50.812;4.430;2022-09-12T15:26:17;25.70;96.30
24800;DHT22;12897;50.812;4.430;2022-09-12T15:28:46;25.90;96.40
24800;DHT22;12897;50.812;4.430;2022-09-12T15:31:28;25.90;97.10
24800;DHT22;12897;50.812;4.430;2022-09-12T15:34:08;25.80;97.90
24800;DHT22;12897;50.812;4.430;2022-09-12T15:36:45;25.90;97.50
24800;DHT22;12897;50.812;4.430;2022-09-12T15:39:19;26.10;97.20
24800;DHT22;12897;50.812;4.430;2022-09-12T15:41:47;25.90;98.00
24800;DHT22;12897;50.812;4.430;2022-09-12T15:44:16;26.00;97.00
24800;DHT22;12897;50.812;4.430;2022-09-12T15:46:45;26.20;96.00
24800;DHT22;12897;50.812;4.430;2022-09-12T15:49:15;26.10;97.10
24800;DHT22;12897;50.812;4.430;2022-09-12T15:51:42;25.70;98.30
24800;DHT22;12897;50.812;4.430;2022-09-12T15:54:13;25.50;98.90
24800;DHT22;12897;50.812;4.430;2022-09-12T15:56:42;25.40;98.70
24800;DHT22;12897;50.812;4.430;2022-09-12T15:59:11;25.70;98.40
24800;DHT22;12897;50.812;4.430;2022-09-12T16:01:40;25.50;98.60
24800;DHT22;12897;50.812;4.430;2022-09-12T16:04:20;25.50;99.10
24800;DHT22;12897;50.812;4.430;2022-09-12T16:06:50;25.30;99.90
24800;DHT22;12897;50.812;4.430;2022-09-12T16:09:20;25.60;99.40
24800;DHT22;12897;50.812;4.430;2022-09-12T16:11:48;25.70;99.10
24800;DHT22;12897;50.812;4.430;2022-09-12T16:14:18;25.40;99.80
24800;DHT22;12897;50.812;4.430;2022-09-12T16:16:54;25.10;99.90
24800;DHT22;12897;50.812;4.430;2022-09-12T16:19:22;25.00;99.90
24800;DHT22;12897;50.812;4.430;2022-09-12T16:21:55;24.70;99.90
24800;DHT22;12897;50.812;4.430;2022-09-12T16:24:23;24.50;99.90
24800;DHT22;12897;50.812;4.430;2022-09-12T16:26:50;24.40;99.90
24800;DHT22;12897;50.812;4.430;2022-09-12T16:29:21;24.60;99.90
24800;DHT22;12897;50.812;4.430;2022-09-12T16:31:49;24.70;99.90
24800;DHT22;12897;50.812;4.430;2022-09-12T16:34:17;25.00;99.90
24800;DHT22;12897;50.812;4.430;2022-09-12T16:36:45;25.40;99.90
24800;DHT22;12897;50.812;4.430;2022-09-12T16:39:13;25.70;99.90
24800;DHT22;12897;50.812;4.430;2022-09-12T16:41:40;26.00;99.90
24800;DHT22;12897;50.812;4.430;2022-09-12T16:44:08;26.10;99.90
24800;DHT22;12897;50.812;4.430;2022-09-12T16:46:36;26.00;99.90
24800;DHT22;12897;50.812;4.430;2022-09-12T16:49:04;26.00;99.90
24800;DHT22;12897;50.812;4.430;2022-09-12T16:51:33;25.70;99.90
24800;DHT22;12897;50.812;4.430;2022-09-12T16:54:02;25.70;99.90
24800;DHT22;12897;50.812;4.430;2022-09-12T16:56:30;25.50;99.90
24800;DHT22;12897;50.812;4.430;2022-09-12T16:58:57;25.30;99.90
24800;DHT22;12897;50.812;4.430;2022-09-12T17:01:25;25.20;99.90
24800;DHT22;12897;50.812;4.430;2022-09-12T17:03:54;25.30;99.90
24800;DHT22;12897;50.812;4.430;2022-09-12T17:06:23;25.70;99.90
24800;DHT22;12897;50.812;4.430;2022-09-12T17:08:53;25.90;99.90
24800;DHT22;12897;50.812;4.430;2022-09-12T17:11:23;25.70;99.90
24800;DHT22;12897;50.812;4.430;2022-09-12T17:16:43;25.30;99.90
24800;DHT22;12897;50.812;4.430;2022-09-12T17:19:18;25.20;99.90
24800;DHT22;12897;50.812;4.430;2022-09-12T17:21:44;25.10;99.90
24800;DHT22;12897;50.812;4.430;2022-09-12T17:24:15;25.00;99.90
24800;DHT22;12897;50.812;4.430;2022-09-12T17:26:50;24.90;99.90
24800;DHT22;12897;50.812;4.430;2022-09-12T17:29:27;24.50;99.90
24800;DHT22;12897;50.812;4.430;2022-09-12T17:32:01;24.20;99.90
24800;DHT22;12897;50.812;4.430;2022-09-12T17:34:30;23.80;99.90
24800;DHT22;12897;50.812;4.430;2022-09-12T17:37:00;23.50;99.90
24800;DHT22;12897;50.812;4.430;2022-09-12T17:39:28;23.20;99.90
24800;DHT22;12897;50.812;4.430;2022-09-12T17:41:56;23.20;99.90
24800;DHT22;12897;50.812;4.430;2022-09-12T17:44:25;23.10;99.90
24800;DHT22;12897;50.812;4.430;2022-09-12T17:46:55;23.30;99.90
24800;DHT22;12897;50.812;4.430;2022-09-12T17:49:24;23.30;99.90
24800;DHT22;12897;50.812;4.430;2022-09-12T17:51:51;23.20;99.90
24800;DHT22;12897;50.812;4.430;2022-09-12T17:54:21;23.20;99.90